Time;durP1;ratioP1;P1;durP2;ratioP2;P2;SDS_P1;SDS_P2;PMS_P1;PMS_P2;Temp;Humidity;BMP_temperature;BMP_pressure;BME280_temperature;BME280_humidity;BME280_pressure;Samples;Min_cycle;Max_cycle;Signal;HPM_P1;HPM_P2
2022/06/25 00:01:28;;;;;;;15.40;14.00;;;16.90;90.10;;;;;;5118348;27;20035;-42
2022/06/25 00:03:55;;;;;;;16.50;14.90;;;16.90;90.20;;;;;;5111788;28;20032;-42
2022/06/25 00:06:21;;;;;;;17.13;15.40;;;16.90;90.20;;;;;;5111739;28;20400;-42
2022/06/25 00:08:48;;;;;;;16.27;14.57;;;16.90;90.10;;;;;;5096151;28;20062;-46
2022/06/25 00:14:20;;;;;;;18.13;16.25;;;16.90;90.10;;;;;;4998598;28;20026;-43
2022/06/25 00:16:46;;;;;;;18.85;17.00;;;16.90;90.10;;;;;;5016040;28;20410;-45
2022/06/25 00:19:14;;;;;;;21.50;19.40;;;16.90;90.10;;;;;;5063879;28;20478;-42
2022/06/25 00:21:39;;;;;;;28.23;25.27;;;16.80;90.20;;;;;;5111252;27;20313;-44
2022/06/25 00:24:08;;;;;;;25.25;22.55;;;16.90;90.40;;;;;;5093607;27;20028;-42
2022/06/25 00:26:33;;;;;;;29.70;26.67;;;16.90;90.30;;;;;;5093604;28;20360;-43
2022/06/25 00:28:59;;;;;;;37.55;33.47;;;16.90;90.30;;;;;;5110908;28;20027;-42
2022/06/25 00:31:24;;;;;;;35.65;31.88;;;16.90;90.50;;;;;;5110888;28;20027;-43
2022/06/25 00:33:50;;;;;;;44.67;38.92;;;16.90;90.50;;;;;;5111430;28;20038;-42
2022/06/25 00:36:16;;;;;;;44.45;39.65;;;16.90;90.50;;;;;;5111202;27;20519;-41
2022/06/25 00:38:42;;;;;;;39.53;35.35;;;17.00;90.70;;;;;;5110873;28;20042;-43
2022/06/25 00:41:07;;;;;;;38.08;34.17;;;16.90;90.50;;;;;;5093273;28;20125;-43
2022/06/25 00:43:38;;;;;;;39.53;35.42;;;16.90;90.50;;;;;;5111035;28;20020;-43
2022/06/25 00:46:04;;;;;;;40.67;36.58;;;16.90;90.50;;;;;;5113551;27;20054;-41
2022/06/25 00:48:31;;;;;;;39.50;35.30;;;17.00;90.60;;;;;;5076138;28;20052;-42
2022/06/25 00:51:01;;;;;;;38.17;34.20;;;17.00;90.60;;;;;;5110367;28;20038;-42
2022/06/25 00:53:32;;;;;;;39.78;35.90;;;17.00;90.50;;;;;;5110473;28;20035;-43
2022/06/25 00:55:59;;;;;;;39.25;35.42;;;16.90;90.50;;;;;;5092568;28;20087;-42
2022/06/25 00:58:30;;;;;;;37.22;33.38;;;16.90;90.50;;;;;;5113253;27;20456;-46
2022/06/25 01:00:59;;;;;;;41.03;35.97;;;16.90;90.50;;;;;;5093328;28;20035;-42
2022/06/25 01:03:25;;;;;;;38.92;35.05;;;16.90;90.40;;;;;;5110259;27;20043;-43
2022/06/25 01:05:50;;;;;;;36.13;32.63;;;16.90;90.60;;;;;;5092538;28;20062;-41
2022/06/25 01:08:18;;;;;;;40.10;36.20;;;16.90;90.60;;;;;;5114103;27;20459;-45
2022/06/25 01:10:44;;;;;;;41.05;36.75;;;16.90;90.60;;;;;;5125186;27;20329;-42
2022/06/25 01:13:11;;;;;;;41.42;37.47;;;16.90;90.70;;;;;;5128385;27;20050;-42
2022/06/25 01:15:38;;;;;;;37.03;33.40;;;16.90;90.70;;;;;;5128140;27;20535;-41
2022/06/25 01:18:07;;;;;;;40.53;36.45;;;16.90;90.70;;;;;;5110537;28;20028;-43
2022/06/25 01:20:34;;;;;;;37.30;33.75;;;16.80;90.60;;;;;;5110247;27;20531;-43
2022/06/25 01:22:59;;;;;;;37.65;33.95;;;16.90;90.60;;;;;;5110608;28;20028;-43
2022/06/25 01:25:35;;;;;;;38.42;34.53;;;16.80;90.60;;;;;;5110047;27;20364;-43
2022/06/25 01:28:03;;;;;;;34.20;30.48;;;16.80;90.60;;;;;;5124520;27;20050;-42
2022/06/25 01:30:31;;;;;;;32.97;29.70;;;16.80;90.70;;;;;;5093086;28;20464;-44
2022/06/25 01:32:56;;;;;;;32.85;29.77;;;16.80;90.60;;;;;;5117358;27;20160;-44
2022/06/25 01:35:23;;;;;;;33.42;30.00;;;16.80;90.60;;;;;;5130063;27;20114;-42
2022/06/25 01:37:49;;;;;;;33.42;29.83;;;16.80;90.70;;;;;;5129376;27;20440;-43
2022/06/25 01:40:15;;;;;;;31.98;28.58;;;16.80;90.70;;;;;;5130568;27;20023;-42
2022/06/25 01:42:59;;;;;;;33.38;29.98;;;16.80;90.80;;;;;;5124710;27;20027;-43
2022/06/25 01:45:29;;;;;;;30.52;27.27;;;16.80;90.80;;;;;;5094733;27;20032;-45
2022/06/25 01:47:57;;;;;;;32.03;28.85;;;16.80;90.80;;;;;;5123363;27;20733;-43
2022/06/25 01:50:23;;;;;;;33.65;30.10;;;16.80;90.60;;;;;;5109918;28;20027;-43
2022/06/25 01:52:48;;;;;;;30.23;27.35;;;16.80;90.60;;;;;;5113825;27;20176;-42
2022/06/25 01:55:15;;;;;;;29.60;26.75;;;16.70;90.50;;;;;;5130465;27;20051;-42
2022/06/25 01:57:42;;;;;;;29.42;26.45;;;16.70;90.50;;;;;;5110831;27;20538;-47
2022/06/25 02:00:10;;;;;;;31.30;28.13;;;16.60;90.40;;;;;;5093916;28;20031;-44
2022/06/25 02:02:37;;;;;;;29.70;26.73;;;16.60;90.30;;;;;;5123042;27;20015;-43
2022/06/25 02:05:04;;;;;;;28.00;25.10;;;16.50;90.40;;;;;;5116954;27;20039;-46
2022/06/25 02:07:30;;;;;;;28.27;25.67;;;16.50;90.40;;;;;;5094904;28;20012;-42
2022/06/25 02:09:58;;;;;;;28.67;26.00;;;16.50;90.40;;;;;;5091357;28;20042;-43
2022/06/25 02:12:24;;;;;;;29.88;26.77;;;16.40;90.40;;;;;;5074875;28;20023;-45
2022/06/25 02:14:50;;;;;;;29.90;27.00;;;16.40;90.40;;;;;;5120229;27;20772;-43
2022/06/25 02:17:18;;;;;;;30.40;27.25;;;16.40;90.40;;;;;;5128864;27;20084;-42
2022/06/25 02:19:44;;;;;;;29.40;26.38;;;16.40;90.40;;;;;;5129999;28;20047;-44
2022/06/25 02:22:14;;;;;;;28.67;25.58;;;16.40;90.60;;;;;;5129768;28;20089;-45
2022/06/25 02:24:44;;;;;;;28.13;25.33;;;16.40;90.60;;;;;;5110152;28;20035;-43
2022/06/25 02:27:10;;;;;;;;;;;16.40;90.70;;;;;;5092147;28;20090;-45
2022/06/25 02:29:35;;;;;;;28.13;24.77;;;16.50;90.60;;;;;;5109379;28;20173;-44
2022/06/25 02:32:01;;;;;;;29.45;26.58;;;16.40;90.70;;;;;;5109398;28;20059;-43
2022/06/25 02:34:27;;;;;;;27.42;24.58;;;16.40;90.60;;;;;;5108826;28;20038;-46
2022/06/25 02:36:53;;;;;;;27.50;24.80;;;16.40;90.70;;;;;;5109396;28;20471;-43
2022/06/25 02:39:19;;;;;;;28.13;25.38;;;16.40;90.70;;;;;;5124390;28;20055;-44
2022/06/25 02:41:45;;;;;;;26.08;23.38;;;16.40;90.50;;;;;;5111888;28;20373;-45
2022/06/25 02:44:11;;;;;;;27.27;24.52;;;16.40;90.60;;;;;;5096826;28;20032;-44
2022/06/25 02:46:36;;;;;;;25.98;23.30;;;16.40;90.50;;;;;;5122014;28;20088;-44
2022/06/25 02:49:02;;;;;;;26.33;23.77;;;16.40;90.60;;;;;;5126944;28;20028;-43
2022/06/25 02:51:29;;;;;;;24.30;21.88;;;16.40;90.70;;;;;;5129807;28;20110;-46
2022/06/25 02:53:55;;;;;;;25.88;23.08;;;16.40;90.80;;;;;;5128302;28;20043;-42
2022/06/25 02:59:05;;;;;;;27.30;24.42;;;16.40;90.70;;;;;;5115851;28;20034;-43
2022/06/25 03:01:31;;;;;;;28.20;25.15;;;16.40;90.80;;;;;;5109098;28;20028;-43
2022/06/25 03:03:57;;;;;;;26.48;23.83;;;16.40;90.90;;;;;;5109093;28;20035;-43
2022/06/25 03:06:24;;;;;;;26.15;23.38;;;16.40;90.90;;;;;;5108992;28;20058;-43
2022/06/25 03:08:50;;;;;;;24.48;21.52;;;16.50;90.90;;;;;;5091567;28;20051;-44
2022/06/25 03:11:17;;;;;;;25.17;22.45;;;16.50;91.10;;;;;;5109041;28;20035;-43
2022/06/25 03:13:45;;;;;;;24.17;21.90;;;16.60;91.20;;;;;;5108401;28;20055;-45
2022/06/25 03:16:11;;;;;;;29.70;23.17;;;16.60;91.20;;;;;;5110042;28;20613;-44
2022/06/25 03:18:38;;;;;;;24.95;22.45;;;16.60;91.10;;;;;;5114708;27;20111;-44
2022/06/25 03:21:04;;;;;;;25.60;23.13;;;16.60;91.20;;;;;;5112802;28;20039;-42
2022/06/25 03:23:29;;;;;;;26.65;23.88;;;16.60;91.30;;;;;;5112776;27;20032;-45
2022/06/25 03:25:55;;;;;;;25.95;23.30;;;16.70;91.30;;;;;;5094858;28;20080;-43
2022/06/25 03:28:21;;;;;;;23.02;20.80;;;16.70;91.30;;;;;;5112586;27;20164;-48
2022/06/25 03:30:47;;;;;;;23.30;20.92;;;16.70;91.30;;;;;;5112572;28;20031;-44
2022/06/25 03:33:15;;;;;;;22.05;19.90;;;16.70;91.20;;;;;;5116654;27;20149;-44
2022/06/25 03:35:41;;;;;;;23.38;19.70;;;16.70;91.20;;;;;;5120206;27;20145;-48
2022/06/25 03:38:07;;;;;;;21.17;19.20;;;16.70;91.30;;;;;;5094338;28;20122;-46
2022/06/25 03:40:35;;;;;;;22.50;20.20;;;16.70;91.20;;;;;;5099857;27;20059;-43
2022/06/25 03:43:00;;;;;;;21.08;18.95;;;16.70;91.20;;;;;;5132798;27;20031;-44
2022/06/25 03:45:26;;;;;;;20.77;18.52;;;16.80;91.10;;;;;;5128869;27;20091;-44
2022/06/25 03:47:52;;;;;;;19.23;17.20;;;16.80;91.10;;;;;;5117103;27;20031;-43
2022/06/25 03:50:19;;;;;;;19.75;17.65;;;16.80;91.10;;;;;;5131240;27;20023;-43
2022/06/25 03:52:45;;;;;;;19.60;17.45;;;16.80;91.10;;;;;;5132006;27;20064;-43
2022/06/25 03:55:12;;;;;;;19.35;17.35;;;16.80;91.10;;;;;;5129627;27;20046;-44
2022/06/25 03:57:37;;;;;;;19.02;17.33;;;16.80;91.10;;;;;;5093692;28;20031;-45
2022/06/25 04:00:05;;;;;;;18.83;16.92;;;16.90;91.10;;;;;;5111237;28;20381;-44
2022/06/25 04:02:31;;;;;;;20.23;16.83;;;16.90;91.10;;;;;;5111438;27;20425;-44
2022/06/25 04:04:57;;;;;;;18.65;17.05;;;16.90;91.10;;;;;;5111652;28;20016;-45
2022/06/25 04:07:23;;;;;;;19.40;17.55;;;16.90;91.00;;;;;;5124222;27;20787;-44
2022/06/25 04:09:48;;;;;;;18.90;17.00;;;16.90;91.00;;;;;;5130924;27;20475;-44
2022/06/25 04:12:14;;;;;;;20.23;18.15;;;16.90;90.90;;;;;;5119815;27;20485;-43
2022/06/25 04:14:40;;;;;;;18.38;16.67;;;17.00;90.80;;;;;;5113841;27;20478;-44
2022/06/25 04:17:06;;;;;;;19.85;17.90;;;17.00;90.80;;;;;;5121708;27;21211;-43
2022/06/25 04:19:39;;;;;;;20.48;18.45;;;17.00;90.80;;;;;;5103381;27;20031;-44
2022/06/25 04:22:07;;;;;;;22.27;19.92;;;17.00;90.90;;;;;;5118206;27;20015;-44
2022/06/25 04:24:34;;;;;;;22.38;19.80;;;17.00;90.90;;;;;;5120635;27;20516;-46
2022/06/25 04:26:59;;;;;;;22.60;20.40;;;17.10;90.90;;;;;;5118537;27;20043;-44
2022/06/25 04:29:25;;;;;;;23.92;21.60;;;17.10;90.90;;;;;;5121448;27;20389;-42
2022/06/25 04:31:50;;;;;;;24.15;21.85;;;17.10;90.90;;;;;;5123461;27;20088;-43
2022/06/25 04:34:16;;;;;;;24.85;22.45;;;17.20;90.90;;;;;;5131893;27;20035;-44
2022/06/25 04:36:42;;;;;;;27.23;24.38;;;17.20;90.90;;;;;;5112197;27;20463;-43
2022/06/25 04:39:07;;;;;;;28.88;26.02;;;17.30;90.80;;;;;;5114074;27;20027;-43
2022/06/25 04:41:33;;;;;;;31.83;28.83;;;17.30;90.80;;;;;;5108201;27;20102;-43
2022/06/25 04:44:01;;;;;;;31.83;28.73;;;17.40;90.80;;;;;;5121398;27;20023;-44
2022/06/25 04:46:29;;;;;;;31.88;28.98;;;17.40;90.80;;;;;;5121027;27;20030;-45
2022/06/25 04:48:57;;;;;;;32.65;29.55;;;17.40;90.90;;;;;;5121221;27;20049;-43
2022/06/25 04:51:27;;;;;;;35.38;32.05;;;17.40;90.90;;;;;;5120222;27;20069;-43
2022/06/25 04:53:55;;;;;;;33.92;30.80;;;17.40;91.00;;;;;;5119495;27;20075;-44
2022/06/25 04:56:26;;;;;;;38.80;34.72;;;17.50;91.10;;;;;;5119324;27;20110;-44
2022/06/25 04:58:52;;;;;;;36.40;32.97;;;17.60;91.10;;;;;;5101657;27;20831;-48
2022/06/25 05:01:18;;;;;;;35.90;32.28;;;17.60;91.10;;;;;;5118527;27;20121;-43
2022/06/25 05:03:46;;;;;;;41.28;36.85;;;17.70;91.10;;;;;;5122253;27;20121;-42
2022/06/25 05:06:13;;;;;;;42.10;37.88;;;17.70;91.10;;;;;;5120828;27;20034;-44
2022/06/25 05:08:39;;;;;;;41.75;37.65;;;17.80;91.10;;;;;;5119756;27;20023;-42
2022/06/25 05:11:04;;;;;;;42.88;38.72;;;17.90;91.10;;;;;;5116719;27;20101;-44
2022/06/25 05:13:33;;;;;;;41.65;37.45;;;17.90;91.10;;;;;;5116263;27;20027;-46
2022/06/25 05:16:00;;;;;;;41.60;37.67;;;18.00;91.10;;;;;;5121259;27;20106;-43
2022/06/25 05:18:26;;;;;;;42.72;38.78;;;18.10;91.00;;;;;;5118892;27;20110;-43
2022/06/25 05:20:54;;;;;;;41.33;37.53;;;18.20;91.10;;;;;;5110311;28;20111;-42
2022/06/25 05:23:20;;;;;;;39.92;36.13;;;18.20;91.00;;;;;;5124675;27;20748;-45
2022/06/25 05:25:46;;;;;;;41.40;37.78;;;18.30;90.90;;;;;;5122942;27;20081;-43
2022/06/25 05:28:11;;;;;;;43.60;39.53;;;18.40;90.90;;;;;;5130826;27;20048;-42
2022/06/25 05:30:37;;;;;;;39.65;35.70;;;18.40;90.80;;;;;;5113361;27;20090;-43
2022/06/25 05:33:03;;;;;;;39.97;36.15;;;18.40;90.80;;;;;;5118724;27;20110;-42
2022/06/25 05:35:28;;;;;;;39.88;36.15;;;18.50;90.80;;;;;;5110343;28;20059;-44
2022/06/25 05:37:54;;;;;;;39.35;35.40;;;18.50;90.70;;;;;;5109873;27;20038;-42
2022/06/25 05:40:20;;;;;;;38.47;34.90;;;18.70;90.60;;;;;;5109887;28;20084;-42
2022/06/25 05:42:46;;;;;;;35.83;32.63;;;18.80;90.30;;;;;;5110795;27;20028;-42
2022/06/25 05:45:12;;;;;;;34.85;31.75;;;18.90;90.00;;;;;;5110689;27;20084;-42
2022/06/25 05:47:38;;;;;;;32.47;29.67;;;19.20;89.70;;;;;;5123580;27;20027;-42
2022/06/25 05:50:04;;;;;;;28.40;25.92;;;19.40;88.80;;;;;;5109710;28;20016;-42
2022/06/25 05:52:30;;;;;;;29.40;26.55;;;19.60;88.30;;;;;;5092696;28;20030;-43
2022/06/25 05:54:56;;;;;;;27.73;25.00;;;19.90;87.60;;;;;;5109568;28;20055;-42
2022/06/25 05:57:21;;;;;;;26.00;23.70;;;20.30;86.30;;;;;;5109704;28;20023;-41
2022/06/25 05:59:47;;;;;;;25.35;23.17;;;20.50;85.80;;;;;;5111636;27;20378;-41
2022/06/25 06:02:13;;;;;;;23.45;21.38;;;20.80;85.40;;;;;;5111285;27;20031;-41
2022/06/25 06:04:38;;;;;;;25.42;23.15;;;20.90;84.30;;;;;;5094060;27;20376;-42
2022/06/25 06:07:07;;;;;;;20.90;19.02;;;20.80;83.70;;;;;;5118693;27;20367;-42
2022/06/25 06:09:33;;;;;;;20.30;18.60;;;20.90;84.30;;;;;;5108887;28;20027;-43
2022/06/25 06:12:01;;;;;;;19.40;17.77;;;21.00;83.20;;;;;;5091797;28;20040;-43
2022/06/25 06:14:27;;;;;;;19.52;17.92;;;21.30;83.00;;;;;;5126900;27;20030;-44
2022/06/25 06:16:53;;;;;;;22.23;20.02;;;21.40;82.70;;;;;;5129284;27;20035;-43
2022/06/25 06:19:18;;;;;;;18.27;16.33;;;21.40;81.70;;;;;;5128766;27;20088;-43
2022/06/25 06:21:44;;;;;;;19.08;17.48;;;21.70;81.30;;;;;;5129361;27;20023;-43
2022/06/25 06:24:10;;;;;;;19.30;17.60;;;21.90;81.30;;;;;;5106326;28;20356;-45
2022/06/25 06:26:37;;;;;;;17.60;16.10;;;21.90;80.10;;;;;;5091386;28;20368;-44
2022/06/25 06:29:05;;;;;;;19.10;16.92;;;21.90;80.40;;;;;;5109247;28;20465;-43
2022/06/25 06:31:31;;;;;;;17.30;15.90;;;21.90;79.50;;;;;;5098728;28;20027;-44
2022/06/25 06:33:57;;;;;;;16.98;15.50;;;21.90;79.90;;;;;;5112981;28;20368;-45
2022/06/25 06:36:22;;;;;;;19.25;17.55;;;21.90;80.40;;;;;;5091097;28;20034;-46
2022/06/25 06:38:48;;;;;;;16.17;14.68;;;21.90;80.10;;;;;;5109011;28;20318;-45
2022/06/25 06:41:14;;;;;;;16.83;15.30;;;21.90;81.00;;;;;;5108904;28;20051;-45
2022/06/25 06:43:40;;;;;;;19.00;17.13;;;21.90;81.20;;;;;;5122780;28;20027;-44
2022/06/25 06:46:09;;;;;;;14.70;13.40;;;21.90;80.50;;;;;;5125697;28;20035;-44
2022/06/25 06:48:36;;;;;;;15.88;14.35;;;21.90;81.40;;;;;;5109420;28;20106;-44
2022/06/25 06:51:02;;;;;;;17.35;15.65;;;21.90;80.60;;;;;;5124299;27;20031;-45
2022/06/25 06:53:28;;;;;;;18.88;17.27;;;21.90;80.60;;;;;;5109301;27;20075;-47
2022/06/25 06:55:53;;;;;;;16.02;14.73;;;21.90;80.80;;;;;;5132057;27;20059;-47
2022/06/25 06:58:19;;;;;;;17.65;16.15;;;22.00;80.40;;;;;;5104366;28;20024;-45
2022/06/25 07:00:47;;;;;;;16.95;15.25;;;22.10;80.60;;;;;;5120425;27;20035;-45
2022/06/25 07:03:13;;;;;;;14.90;13.68;;;22.20;79.30;;;;;;5119748;27;20046;-44
2022/06/25 07:05:39;;;;;;;16.08;14.68;;;22.20;79.30;;;;;;5122340;27;20461;-45
2022/06/25 07:08:04;;;;;;;14.88;13.40;;;22.20;79.40;;;;;;5121709;27;20094;-47
2022/06/25 07:10:30;;;;;;;16.95;15.30;;;22.20;79.90;;;;;;5123468;27;20085;-45
2022/06/25 07:12:56;;;;;;;12.50;11.48;;;22.20;80.10;;;;;;5129167;27;20079;-45
2022/06/25 07:15:21;;;;;;;13.25;12.05;;;22.40;79.70;;;;;;5109543;27;20440;-47
2022/06/25 07:17:47;;;;;;;12.15;11.05;;;22.90;78.80;;;;;;5122008;27;20073;-48
2022/06/25 07:20:13;;;;;;;11.95;10.85;;;23.40;76.90;;;;;;5123335;27;20048;-45
2022/06/25 07:22:39;;;;;;;10.30;9.38;;;23.70;74.20;;;;;;5113846;27;20080;-45
2022/06/25 07:25:05;;;;;;;9.50;8.70;;;24.40;72.10;;;;;;5112258;27;20019;-45
2022/06/25 07:27:30;;;;;;;7.63;6.82;;;24.70;71.50;;;;;;5094772;28;20179;-46
2022/06/25 07:29:56;;;;;;;9.38;8.55;;;25.30;70.00;;;;;;5112127;28;20114;-46
2022/06/25 07:32:22;;;;;;;8.48;7.68;;;25.40;68.20;;;;;;5112252;27;20027;-46
2022/06/25 07:34:47;;;;;;;10.43;8.80;;;25.80;67.10;;;;;;5112411;28;20030;-46
2022/06/25 07:37:16;;;;;;;8.48;6.90;;;26.00;65.70;;;;;;5124064;27;20023;-45
2022/06/25 07:39:42;;;;;;;8.32;7.47;;;26.00;66.30;;;;;;5112293;28;20030;-47
2022/06/25 07:42:08;;;;;;;7.90;7.18;;;26.40;64.90;;;;;;5122517;27;20027;-48
2022/06/25 07:44:33;;;;;;;8.98;7.22;;;26.70;62.70;;;;;;5100799;28;20023;-47
2022/06/25 07:46:59;;;;;;;6.60;6.00;;;26.60;62.80;;;;;;5111685;27;20024;-47
2022/06/25 07:49:24;;;;;;;6.75;6.15;;;26.90;63.10;;;;;;5093999;28;20038;-45
2022/06/25 07:51:56;;;;;;;10.38;7.97;;;27.20;61.40;;;;;;5124719;27;20080;-46
2022/06/25 07:54:29;;;;;;;7.05;6.35;;;27.10;61.10;;;;;;5114074;27;20054;-45
2022/06/25 07:56:55;;;;;;;8.48;6.93;;;27.40;61.70;;;;;;5106409;27;20031;-49
2022/06/25 07:59:22;;;;;;;6.70;5.90;;;27.60;59.70;;;;;;5120513;27;20015;-47
2022/06/25 08:01:48;;;;;;;8.27;6.88;;;27.90;60.60;;;;;;5103037;27;20023;-45
2022/06/25 08:04:16;;;;;;;7.20;5.43;;;27.90;58.90;;;;;;5098962;27;20728;-46
2022/06/25 08:06:43;;;;;;;7.57;4.90;;;27.90;60.00;;;;;;5120749;27;20081;-46
2022/06/25 08:09:08;;;;;;;5.93;4.63;;;27.90;57.70;;;;;;5099556;27;20306;-48
2022/06/25 08:11:35;;;;;;;5.65;4.47;;;28.40;58.10;;;;;;5103845;27;20038;-46
2022/06/25 08:14:00;;;;;;;5.93;4.60;;;28.60;56.90;;;;;;5130805;27;20352;-46
2022/06/25 08:16:26;;;;;;;5.57;3.75;;;28.90;56.10;;;;;;5114012;27;20031;-45
2022/06/25 08:18:55;;;;;;;6.78;6.18;;;29.10;54.80;;;;;;5129195;27;20344;-45
2022/06/25 08:21:21;;;;;;;8.38;5.50;;;28.90;53.70;;;;;;5120177;27;20400;-46
2022/06/25 08:23:47;;;;;;;6.40;5.38;;;28.70;55.50;;;;;;5095597;28;20059;-45
2022/06/25 08:26:16;;;;;;;6.63;5.07;;;28.40;55.40;;;;;;5111482;28;20024;-46
2022/06/25 08:28:44;;;;;;;5.47;4.93;;;28.40;56.60;;;;;;5117883;27;20110;-47
2022/06/25 08:31:12;;;;;;;5.13;4.63;;;28.40;56.60;;;;;;5113715;27;20091;-47
2022/06/25 08:33:41;;;;;;;7.30;4.45;;;28.50;55.80;;;;;;5115606;27;20027;-47
2022/06/25 08:36:10;;;;;;;4.78;3.75;;;28.90;55.10;;;;;;5111486;28;20046;-46
2022/06/25 08:38:37;;;;;;;5.78;3.75;;;28.90;55.20;;;;;;5124649;27;20043;-45
2022/06/25 08:41:03;;;;;;;4.72;4.13;;;28.80;54.80;;;;;;5131827;27;20168;-49
2022/06/25 08:43:29;;;;;;;8.23;3.75;;;29.10;53.70;;;;;;5118054;27;20106;-45
2022/06/25 08:45:55;;;;;;;4.32;3.35;;;28.90;55.00;;;;;;5093110;28;20034;-45
2022/06/25 08:48:31;;;;;;;4.35;2.80;;;29.00;54.90;;;;;;5092468;28;20509;-45
2022/06/25 08:50:59;;;;;;;4.57;2.67;;;29.30;55.60;;;;;;5110852;28;20130;-46
2022/06/25 08:53:30;;;;;;;5.43;2.75;;;29.10;52.30;;;;;;5111806;27;20106;-45
2022/06/25 08:55:56;;;;;;;4.43;2.58;;;28.90;54.20;;;;;;5112190;28;20040;-47
2022/06/25 08:58:22;;;;;;;4.20;3.30;;;29.00;53.60;;;;;;5075928;27;20475;-47
2022/06/25 09:00:49;;;;;;;5.18;2.53;;;29.00;54.80;;;;;;5114293;27;20027;-48
2022/06/25 09:03:15;;;;;;;4.88;2.38;;;29.40;53.90;;;;;;5111801;27;20027;-46
2022/06/25 09:05:43;;;;;;;6.00;2.20;;;29.70;53.50;;;;;;5128060;27;20347;-45
2022/06/25 09:08:13;;;;;;;3.50;2.33;;;29.60;52.60;;;;;;5130499;27;20011;-46
2022/06/25 09:10:40;;;;;;;;;;;29.50;51.10;;;;;;5126068;27;20068;-47
2022/06/25 09:13:08;;;;;;;4.10;1.90;;;28.80;51.40;;;;;;5124419;27;19912;-45
2022/06/25 09:15:55;;;;;;;5.30;2.20;;;28.80;53.90;;;;;;5110094;28;20053;-45
2022/06/25 09:18:21;;;;;;;5.75;2.53;;;29.30;55.80;;;;;;5109845;27;20036;-45
2022/06/25 09:20:58;;;;;;;4.28;2.47;;;29.70;52.90;;;;;;5122458;27;20113;-45
2022/06/25 09:23:25;;;;;;;3.88;1.90;;;29.40;49.60;;;;;;5104977;27;20030;-45
2022/06/25 09:26:10;;;;;;;4.72;2.08;;;28.60;52.60;;;;;;5092291;28;20441;-46
2022/06/25 09:28:44;;;;;;;3.58;2.05;;;28.10;53.80;;;;;;5096933;27;20371;-45
2022/06/25 09:31:15;;;;;;;7.00;2.15;;;28.10;54.10;;;;;;5130752;27;20027;-45
2022/06/25 09:33:42;;;;;;;6.00;2.60;;;28.40;54.70;;;;;;5128922;27;20027;-48
2022/06/25 09:36:09;;;;;;;4.97;2.30;;;28.70;54.30;;;;;;5130780;27;20452;-46
2022/06/25 09:38:40;;;;;;;5.93;2.33;;;28.90;53.30;;;;;;5105013;27;20106;-45
2022/06/25 09:41:10;;;;;;;4.00;1.60;;;29.40;52.40;;;;;;5130517;27;20110;-47
2022/06/25 09:43:37;;;;;;;3.72;1.80;;;29.20;50.40;;;;;;5113994;27;20047;-45
2022/06/25 09:46:05;;;;;;;4.22;2.10;;;28.90;52.20;;;;;;5118077;27;20024;-45
2022/06/25 09:48:35;;;;;;;5.45;1.80;;;28.80;53.60;;;;;;5115108;27;20467;-47
2022/06/25 09:51:28;;;;;;;4.57;2.15;;;28.40;53.10;;;;;;5109974;28;20043;-45
2022/06/25 09:54:01;;;;;;;3.38;2.17;;;27.80;54.30;;;;;;5125074;27;20039;-44
2022/06/25 09:56:35;;;;;;;2.60;1.60;;;28.20;55.80;;;;;;5130255;27;20019;-46
2022/06/25 09:59:02;;;;;;;2.88;1.67;;;28.70;54.90;;;;;;5128853;27;20027;-45
2022/06/25 10:01:32;;;;;;;4.60;2.25;;;28.80;52.90;;;;;;5110249;28;20064;-46
2022/06/25 10:04:03;;;;;;;4.05;1.70;;;28.80;51.30;;;;;;5109277;28;20093;-45
2022/06/25 10:06:35;;;;;;;3.45;1.85;;;28.80;53.00;;;;;;5109730;28;20027;-45
2022/06/25 10:09:04;;;;;;;5.00;1.70;;;29.20;52.40;;;;;;5121814;27;20050;-45
2022/06/25 10:11:32;;;;;;;4.07;1.83;;;29.30;50.60;;;;;;5126823;27;20031;-45
2022/06/25 10:13:59;;;;;;;3.88;1.98;;;28.90;51.60;;;;;;5101200;28;20506;-45
2022/06/25 10:16:29;;;;;;;3.67;1.65;;;29.00;52.70;;;;;;5108514;28;20032;-45
2022/06/25 10:19:03;;;;;;;2.47;1.30;;;28.90;52.80;;;;;;5123480;27;20031;-49
2022/06/25 10:21:30;;;;;;;4.43;1.90;;;28.60;51.60;;;;;;5128511;27;20031;-46
2022/06/25 10:23:59;;;;;;;2.83;1.73;;;28.70;53.10;;;;;;5127739;27;20027;-46
2022/06/25 10:26:27;;;;;;;2.42;1.55;;;29.20;52.10;;;;;;5129291;27;20015;-48
2022/06/25 10:28:53;;;;;;;3.00;1.60;;;29.50;50.50;;;;;;5123500;28;20024;-46
2022/06/25 10:31:20;;;;;;;2.55;1.40;;;29.30;49.70;;;;;;5112053;28;20023;-46
2022/06/25 10:33:58;;;;;;;4.10;1.92;;;29.50;50.70;;;;;;5108679;28;20464;-44
2022/06/25 10:36:45;;;;;;;6.95;1.50;;;29.50;50.90;;;;;;5109500;28;20055;-45
2022/06/25 10:39:26;;;;;;;5.88;1.98;;;29.30;49.10;;;;;;5109104;28;20520;-45
2022/06/25 10:45:15;;;;;;;5.85;2.40;;;29.70;48.30;;;;;;5109732;28;20090;-46
2022/06/25 10:47:56;;;;;;;5.10;2.38;;;29.60;48.50;;;;;;5122676;28;20035;-44
2022/06/25 10:50:22;;;;;;;3.15;1.77;;;29.30;48.80;;;;;;5129266;28;20042;-47
2022/06/25 10:53:06;;;;;;;4.75;2.38;;;28.90;48.80;;;;;;5120769;28;20035;-49
2022/06/25 10:55:56;;;;;;;3.40;1.60;;;28.10;51.70;;;;;;5106069;27;20054;-47
2022/06/25 10:58:27;;;;;;;2.95;1.52;;;27.80;50.90;;;;;;5122686;28;20050;-45
2022/06/25 11:01:01;;;;;;;4.13;1.55;;;27.80;53.00;;;;;;5092880;28;20034;-45
2022/06/25 11:03:42;;;;;;;2.72;1.50;;;28.00;53.90;;;;;;5129063;28;20015;-45
2022/06/25 11:06:29;;;;;;;3.78;1.25;;;28.30;50.70;;;;;;5109823;28;20035;-45
2022/06/25 11:09:14;;;;;;;2.30;1.20;;;28.60;49.80;;;;;;5128555;28;20034;-47
2022/06/25 11:11:44;;;;;;;2.28;1.48;;;28.90;49.90;;;;;;5109417;28;20106;-46
2022/06/25 11:14:17;;;;;;;4.68;1.70;;;28.90;48.00;;;;;;5088026;28;20042;-47
2022/06/25 11:16:44;;;;;;;2.53;1.08;;;28.90;49.70;;;;;;5135686;27;20055;-45
2022/06/25 11:19:11;;;;;;;5.53;1.58;;;28.80;49.80;;;;;;5123440;28;20031;-49
2022/06/25 11:21:43;;;;;;;3.95;1.55;;;29.20;49.40;;;;;;5121744;28;20088;-46
2022/06/25 11:24:27;;;;;;;3.85;1.15;;;29.60;49.70;;;;;;5083758;28;20054;-47
2022/06/25 11:29:46;;;;;;;4.15;1.38;;;29.50;47.10;;;;;;5104531;28;20471;-46
2022/06/25 11:32:14;;;;;;;2.20;1.00;;;29.30;47.70;;;;;;5101748;28;20031;-47
2022/06/25 11:34:41;;;;;;;2.97;1.27;;;29.30;48.50;;;;;;5117537;28;20033;-45
2022/06/25 11:37:26;;;;;;;4.75;1.63;;;28.50;49.00;;;;;;5100239;27;20046;-49
2022/06/25 11:39:53;;;;;;;3.42;1.48;;;27.90;49.90;;;;;;5104680;27;20124;-45
2022/06/25 11:42:19;;;;;;;3.30;1.52;;;27.80;52.90;;;;;;5111695;27;20032;-50
2022/06/25 11:44:47;;;;;;;3.45;2.00;;;27.50;51.90;;;;;;5120930;27;20031;-45
2022/06/25 11:47:19;;;;;;;3.65;1.50;;;27.30;51.80;;;;;;5123466;27;20019;-45
2022/06/25 11:49:46;;;;;;;2.55;1.20;;;27.40;53.20;;;;;;5111719;28;20019;-46
2022/06/25 11:52:12;;;;;;;2.40;1.42;;;27.70;51.20;;;;;;5116556;27;20077;-45
2022/06/25 11:54:41;;;;;;;2.45;0.95;;;28.00;50.90;;;;;;5121200;27;20052;-48
2022/06/25 11:57:21;;;;;;;1.63;0.77;;;28.20;50.20;;;;;;5096948;28;20852;-47
2022/06/25 11:59:48;;;;;;;4.28;1.45;;;28.30;49.40;;;;;;5112576;27;20131;-45
2022/06/25 12:02:15;;;;;;;2.65;1.00;;;28.40;48.40;;;;;;5113958;27;20038;-45
2022/06/25 12:04:51;;;;;;;2.47;1.05;;;28.40;47.80;;;;;;5082195;27;20127;-47
2022/06/25 12:07:31;;;;;;;3.22;1.15;;;28.60;48.30;;;;;;5102642;27;20442;-45
2022/06/25 12:10:03;;;;;;;2.35;0.90;;;28.90;48.00;;;;;;5070057;27;20544;-47
2022/06/25 12:12:29;;;;;;;2.45;1.10;;;29.10;49.30;;;;;;5085223;28;20046;-45
2022/06/25 12:15:01;;;;;;;2.05;1.08;;;29.30;47.70;;;;;;5102399;27;20021;-45
2022/06/25 12:17:40;;;;;;;1.58;0.95;;;29.30;48.20;;;;;;5103222;27;20027;-47
2022/06/25 12:20:12;;;;;;;3.50;1.27;;;29.10;46.30;;;;;;5104454;27;20032;-46
2022/06/25 12:22:48;;;;;;;3.85;1.20;;;29.20;50.70;;;;;;5103482;27;20027;-47
2022/06/25 12:25:32;;;;;;;2.85;1.25;;;29.20;46.50;;;;;;5086669;27;20436;-47
2022/06/25 12:27:59;;;;;;;4.03;1.25;;;28.90;48.70;;;;;;5103670;27;20043;-45
2022/06/25 12:30:28;;;;;;;2.13;1.05;;;28.50;51.00;;;;;;5103720;27;20015;-45
2022/06/25 12:33:02;;;;;;;3.05;1.10;;;28.40;49.50;;;;;;5104049;27;20022;-48
2022/06/25 12:35:30;;;;;;;1.85;1.10;;;28.10;48.10;;;;;;5102950;27;20122;-47
2022/06/25 12:38:11;;;;;;;2.72;1.20;;;28.10;49.00;;;;;;5125756;27;20015;-46
2022/06/25 12:40:55;;;;;;;2.40;1.23;;;27.90;48.50;;;;;;5115958;27;20024;-47
2022/06/25 12:43:25;;;;;;;2.55;1.00;;;27.70;50.30;;;;;;5122664;27;20448;-47
2022/06/25 12:45:54;;;;;;;3.28;1.17;;;27.40;50.30;;;;;;5098208;28;20412;-45
2022/06/25 12:48:30;;;;;;;3.13;1.20;;;27.50;50.70;;;;;;5118494;27;20016;-49
2022/06/25 12:51:18;;;;;;;1.88;0.98;;;27.40;49.60;;;;;;5125342;27;20455;-46
2022/06/25 12:53:45;;;;;;;3.15;1.17;;;27.40;49.70;;;;;;5106599;27;20066;-49